createdAt,value
2018-08-23T00:01:35.724Z,100323.12
2018-08-23T00:04:08.148Z,100322.11
2018-08-23T00:06:41.652Z,100328.70
2018-08-23T00:09:12.329Z,100320.56
2018-08-23T00:11:46.578Z,100316.53
2018-08-23T00:14:17.852Z,100309.97
2018-08-23T00:16:48.869Z,100305.95
2018-08-23T00:19:19.518Z,100305.73
2018-08-23T00:21:51.321Z,100308.08
2018-08-23T00:24:23.293Z,100304.33
2018-08-23T00:27:30.165Z,100308.84
2018-08-23T00:30:00.852Z,100302.13
2018-08-23T00:32:31.526Z,100295.20
2018-08-23T00:35:02.240Z,100298.96
2018-08-23T00:37:32.983Z,100291.55
2018-08-23T00:40:07.661Z,100297.89
2018-08-23T00:42:38.429Z,100293.47
2018-08-23T00:45:18.001Z,100287.03
2018-08-23T00:47:48.706Z,100284.08
2018-08-23T00:51:05.247Z,100286.48
2018-08-23T00:53:37.121Z,100285.98
2018-08-23T00:56:18.484Z,100286.13
2018-08-23T00:58:54.307Z,100289.57
2018-08-23T01:01:25.006Z,100280.58
2018-08-23T01:03:55.646Z,100280.82
2018-08-23T01:06:46.141Z,100278.53
2018-08-23T01:09:16.716Z,100275.52
2018-08-23T01:11:47.428Z,100273.25
2018-08-23T01:14:18.039Z,100272.81
2018-08-23T01:17:07.841Z,100267.16
2018-08-23T01:19:43.729Z,100268.22
2018-08-23T01:22:14.362Z,100267.77
2018-08-23T01:24:47.807Z,100279.50
2018-08-23T01:27:52.638Z,100275.27
2018-08-23T01:30:24.500Z,100271.17
2018-08-23T01:32:55.232Z,100270.31
2018-08-23T01:35:26.372Z,100266.92
2018-08-23T01:37:57.062Z,100266.34
2018-08-23T01:40:27.759Z,100257.73
2018-08-23T01:42:58.471Z,100253.64
2018-08-23T01:45:29.171Z,100258.86
2018-08-23T01:48:00.843Z,100254.62
2018-08-23T01:50:31.507Z,100252.23
2018-08-23T01:53:02.232Z,100248.96
2018-08-23T01:55:32.937Z,100248.62
2018-08-23T01:58:03.616Z,100241.92
2018-08-23T02:00:35.667Z,100240.70
2018-08-23T02:03:06.525Z,100237.80
2018-08-23T02:05:38.938Z,100244.79
2018-08-23T02:08:09.622Z,100232.28
2018-08-23T02:10:40.276Z,100233.55
2018-08-23T02:13:16.288Z,100226.38
2018-08-23T02:15:50.988Z,100225.33
2018-08-23T02:18:21.664Z,100220.57
2018-08-23T02:20:56.376Z,100226.45
2018-08-23T02:23:27.078Z,100228.19
2018-08-23T02:25:57.780Z,100224.44
2018-08-23T02:28:28.468Z,100224.09
2018-08-23T02:30:59.111Z,100226.26
2018-08-23T02:33:29.754Z,100223.80
2018-08-23T02:36:20.664Z,100219.04
2018-08-23T02:38:59.941Z,100213.87
2018-08-23T02:41:30.960Z,100212.83
2018-08-23T02:44:01.681Z,100212.23
2018-08-23T02:46:33.784Z,100213.72
2018-08-23T02:49:04.458Z,100211.11
2018-08-23T02:51:42.609Z,100206.27
2018-08-23T02:54:14.442Z,100205.63
2018-08-23T02:56:50.249Z,100205.18
2018-08-23T02:59:20.939Z,100205.44
2018-08-23T03:01:51.935Z,100195.91
2018-08-23T03:04:24.609Z,100198.75
2018-08-23T03:07:06.342Z,100193.37
2018-08-23T03:09:38.938Z,100190.27
2018-08-23T03:12:11.966Z,100186.19
2018-08-23T03:14:42.625Z,100183.08
2018-08-23T03:17:20.693Z,100182.27
2018-08-23T03:20:18.806Z,100178.08
2018-08-23T03:22:53.735Z,100176.19
2018-08-23T03:25:25.572Z,100177.05
2018-08-23T03:27:56.566Z,100172.86
2018-08-23T03:30:27.249Z,100176.05
2018-08-23T03:32:57.936Z,100169.38
2018-08-23T03:35:28.603Z,100174.26
2018-08-23T03:37:59.270Z,100173.44
2018-08-23T03:40:29.926Z,100176.27
2018-08-23T03:43:00.613Z,100177.02
2018-08-23T03:45:31.285Z,100174.55
2018-08-23T03:48:01.926Z,100179.66
2018-08-23T03:50:38.032Z,100179.22
2018-08-23T03:53:08.688Z,100178.59
2018-08-23T03:55:39.343Z,100171.10
2018-08-23T03:58:10.031Z,100174.15
2018-08-23T04:01:05.833Z,100173.05
2018-08-23T04:03:38.752Z,100170.55
2018-08-23T04:06:32.163Z,100168.73
2018-08-23T04:09:02.924Z,100174.31
2018-08-23T04:11:33.612Z,100168.00
2018-08-23T04:14:04.297Z,100175.16
2018-08-23T04:16:35.207Z,100172.38
2018-08-23T04:19:05.947Z,100167.17
2018-08-23T04:21:36.636Z,100169.60
2018-08-23T04:24:07.317Z,100177.02
2018-08-23T04:26:37.970Z,100177.98
2018-08-23T04:29:08.641Z,100180.92
2018-08-23T04:31:39.289Z,100174.72
2018-08-23T04:34:09.956Z,100171.20
2018-08-23T04:36:40.682Z,100174.82
2018-08-23T04:39:12.424Z,100172.66
2018-08-23T04:41:43.834Z,100162.09
2018-08-23T04:44:16.456Z,100165.61
2018-08-23T04:46:47.128Z,100163.42
2018-08-23T04:49:17.800Z,100162.47
2018-08-23T04:51:48.538Z,100163.80
2018-08-23T04:54:19.133Z,100158.81
2018-08-23T04:56:49.827Z,100161.13
2018-08-23T04:59:20.487Z,100161.13
2018-08-23T05:01:51.147Z,100155.18
2018-08-23T05:04:21.851Z,100153.38
2018-08-23T05:06:52.521Z,100154.56
2018-08-23T05:09:23.149Z,100155.67
2018-08-23T05:11:54.461Z,100159.54
2018-08-23T05:14:25.138Z,100149.72
2018-08-23T05:16:55.858Z,100150.92
2018-08-23T05:19:26.525Z,100151.12
2018-08-23T05:21:57.240Z,100153.45
2018-08-23T05:24:27.869Z,100151.64
2018-08-23T05:26:58.572Z,100151.48
2018-08-23T05:29:29.196Z,100151.34
2018-08-23T05:31:59.882Z,100148.67
2018-08-23T05:34:30.502Z,100141.89
2018-08-23T05:37:01.212Z,100147.20
2018-08-23T05:39:49.187Z,100143.05
2018-08-23T05:42:38.518Z,100140.34
2018-08-23T05:45:09.190Z,100141.54
2018-08-23T05:47:39.847Z,100146.88
2018-08-23T05:50:10.537Z,100138.61
2018-08-23T05:52:41.252Z,100142.48
2018-08-23T05:55:11.935Z,100147.05
2018-08-23T05:57:42.616Z,100144.23
2018-08-23T06:00:13.321Z,100139.53
2018-08-23T06:02:44.036Z,100141.91
2018-08-23T06:05:14.690Z,100142.69
2018-08-23T06:07:45.346Z,100145.20
2018-08-23T06:10:16.011Z,100137.52
2018-08-23T06:12:46.669Z,100141.77
2018-08-23T06:15:17.371Z,100141.19
2018-08-23T06:17:48.133Z,100143.88
2018-08-23T06:20:18.881Z,100138.09
2018-08-23T06:22:49.648Z,100141.14
2018-08-23T06:25:20.500Z,100145.13
2018-08-23T06:27:51.171Z,100143.86
2018-08-23T06:30:21.832Z,100142.06
2018-08-23T06:32:56.640Z,100152.28
2018-08-23T06:35:34.710Z,100146.84
2018-08-23T06:38:05.859Z,100148.63
2018-08-23T06:40:36.484Z,100148.76
2018-08-23T06:43:07.198Z,100153.77
2018-08-23T06:45:37.896Z,100148.89
2018-08-23T06:48:08.560Z,100145.78
2018-08-23T06:50:43.234Z,100143.92
2018-08-23T06:53:13.912Z,100149.44
2018-08-23T06:55:44.554Z,100144.59
2018-08-23T06:58:16.129Z,100147.53
2018-08-23T07:00:46.830Z,100144.27
2018-08-23T07:03:17.472Z,100136.64
2018-08-23T07:05:48.164Z,100142.90
2018-08-23T07:08:18.845Z,100134.64
2018-08-23T07:10:49.624Z,100138.57
2018-08-23T07:13:20.265Z,100135.20
2018-08-23T07:15:56.011Z,100130.91
2018-08-23T07:18:26.682Z,100128.91
2018-08-23T07:20:57.360Z,100131.36
2018-08-23T07:23:36.579Z,100132.39
2018-08-23T07:26:14.087Z,100134.89
2018-08-23T07:28:44.745Z,100127.97
2018-08-23T07:31:15.409Z,100136.50
2018-08-23T07:33:50.347Z,100134.52
2018-08-23T07:36:29.591Z,100136.78
2018-08-23T07:39:00.342Z,100140.67
2018-08-23T07:41:31.013Z,100136.05
2018-08-23T07:44:01.721Z,100138.30
2018-08-23T07:46:32.390Z,100136.81
2018-08-23T07:49:03.131Z,100135.78
2018-08-23T07:51:33.772Z,100132.73
2018-08-23T07:54:08.494Z,100137.62
2018-08-23T07:56:39.179Z,100136.14
2018-08-23T07:59:09.862Z,100134.16
2018-08-23T08:01:40.620Z,100136.53
2018-08-23T08:04:11.648Z,100141.87
2018-08-23T08:06:42.301Z,100136.81
2018-08-23T08:09:13.115Z,100141.14
2018-08-23T08:11:51.294Z,100139.95
2018-08-23T08:14:27.118Z,100149.08
2018-08-23T08:17:07.985Z,100144.86
2018-08-23T08:19:41.065Z,100142.41
2018-08-23T08:22:11.842Z,100132.61
2018-08-23T08:24:42.505Z,100139.19
2018-08-23T08:27:13.242Z,100133.48
2018-08-23T08:29:43.925Z,100136.66
2018-08-23T08:32:14.659Z,100134.45
2018-08-23T08:34:45.398Z,100139.05
2018-08-23T08:37:16.074Z,100144.31
2018-08-23T08:39:46.720Z,100135.42
2018-08-23T08:42:18.497Z,100130.97
2018-08-23T08:44:49.312Z,100129.27
2018-08-23T08:47:19.993Z,100135.29
2018-08-23T08:49:50.695Z,100127.61
2018-08-23T08:52:21.341Z,100134.22
2018-08-23T08:54:51.981Z,100123.80
2018-08-23T08:57:25.012Z,100122.88
2018-08-23T08:59:55.711Z,100117.30
2018-08-23T09:02:26.349Z,100113.28
2018-08-23T09:04:57.116Z,100123.47
2018-08-23T09:07:31.623Z,100122.64
2018-08-23T09:10:02.285Z,100115.27
2018-08-23T09:12:33.472Z,100119.16
2018-08-23T09:15:04.196Z,100106.66
2018-08-23T09:17:41.780Z,100108.36
2018-08-23T09:20:13.606Z,100100.16
2018-08-23T09:22:49.340Z,100105.95
2018-08-23T09:25:28.660Z,100104.30
2018-08-23T09:27:59.309Z,100107.50
2018-08-23T09:30:31.390Z,100096.22
2018-08-23T09:33:08.186Z,100091.85
2018-08-23T09:35:39.043Z,100099.36
2018-08-23T09:38:13.513Z,100093.78
2018-08-23T09:40:44.123Z,100088.40
2018-08-23T09:43:14.842Z,100086.31
2018-08-23T09:45:45.612Z,100092.78
2018-08-23T09:48:16.300Z,100092.50
2018-08-23T09:50:47.018Z,100093.27
2018-08-23T09:53:23.768Z,100084.30
2018-08-23T09:55:56.139Z,100073.53
2018-08-23T09:58:31.999Z,100080.06
2018-08-23T10:01:07.871Z,100074.59
2018-08-23T10:03:43.681Z,100067.88
2018-08-23T10:06:28.763Z,100071.55
2018-08-23T10:09:20.635Z,100065.22
2018-08-23T10:11:56.558Z,100065.95
2018-08-23T10:14:32.515Z,100062.86
2018-08-23T10:17:08.446Z,100060.61
2018-08-23T10:19:44.315Z,100063.72
2018-08-23T10:22:38.235Z,100068.53
2018-08-23T10:25:46.816Z,100070.31
2018-08-23T10:28:18.930Z,100075.30
2018-08-23T10:30:49.865Z,100063.35
2018-08-23T10:33:20.645Z,100068.27
2018-08-23T10:35:57.007Z,100060.92
2018-08-23T10:38:28.903Z,100053.24
2018-08-23T10:41:04.995Z,100055.16
2018-08-23T10:43:41.024Z,100054.77
2018-08-23T10:46:11.716Z,100060.78
2018-08-23T10:48:42.403Z,100051.73
2018-08-23T10:51:13.100Z,100055.72
2018-08-23T10:53:43.842Z,100047.63
2018-08-23T10:56:14.556Z,100048.80
2018-08-23T10:58:45.202Z,100048.48
2018-08-23T11:01:18.863Z,100051.91
2018-08-23T11:03:49.508Z,100048.48
2018-08-23T11:06:20.347Z,100040.67
2018-08-23T11:08:56.013Z,100050.03
2018-08-23T11:11:31.711Z,100038.41
2018-08-23T11:14:07.975Z,100044.37
2018-08-23T11:16:43.950Z,100043.17
2018-08-23T11:19:19.849Z,100033.63
2018-08-23T11:21:50.589Z,100038.48
2018-08-23T11:24:21.212Z,100028.45
2018-08-23T11:26:52.024Z,100033.11
2018-08-23T11:29:23.334Z,100019.91
2018-08-23T11:31:54.017Z,100020.38
2018-08-23T11:34:24.740Z,100026.91
2018-08-23T11:36:55.455Z,100022.59
2018-08-23T11:39:26.061Z,100017.92
2018-08-23T11:41:56.703Z,100008.88
2018-08-23T11:44:27.407Z,100021.09
2018-08-23T11:46:58.107Z,100021.98
2018-08-23T11:49:28.708Z,100009.22
2018-08-23T11:51:59.466Z,100011.38
2018-08-23T11:54:30.164Z,100008.22
2018-08-23T11:57:00.849Z,100012.42
2018-08-23T11:59:31.531Z,100002.17
2018-08-23T12:02:02.212Z,99993.17
2018-08-23T12:04:32.889Z,99995.01
2018-08-23T12:07:03.688Z,99995.66
2018-08-23T12:09:34.457Z,99992.61
2018-08-23T12:12:05.480Z,99998.56
2018-08-23T12:14:36.202Z,99995.16
2018-08-23T12:17:06.990Z,99994.93
2018-08-23T12:19:37.689Z,99994.77
2018-08-23T12:22:08.431Z,100002.95
2018-08-23T12:24:39.071Z,99996.19
2018-08-23T12:27:09.743Z,99997.32
2018-08-23T12:29:40.432Z,99974.08
2018-08-23T12:32:11.140Z,99981.61
2018-08-23T12:34:41.855Z,99986.15
2018-08-23T12:37:17.773Z,99986.56
2018-08-23T12:39:53.702Z,99986.48
2018-08-23T12:42:29.477Z,99984.72
2018-08-23T12:45:00.096Z,99987.05
2018-08-23T12:47:30.754Z,99977.58
2018-08-23T12:50:04.912Z,99973.34
2018-08-23T12:52:35.577Z,99973.44
2018-08-23T12:55:06.483Z,99966.42
2018-08-23T12:57:37.148Z,99968.81
2018-08-23T13:00:07.877Z,99968.80
2018-08-23T13:02:38.603Z,99965.50
2018-08-23T13:05:09.264Z,99953.02
2018-08-23T13:07:40.024Z,99956.08
2018-08-23T13:10:10.733Z,99956.56
2018-08-23T13:12:41.382Z,99962.86
2018-08-23T13:15:12.074Z,99956.91
2018-08-23T13:17:42.766Z,99932.72
2018-08-23T13:20:13.488Z,99952.64
2018-08-23T13:22:44.165Z,99953.47
2018-08-23T13:25:15.365Z,99944.78
2018-08-23T13:27:46.056Z,99937.27
2018-08-23T13:30:16.872Z,99936.33
2018-08-23T13:32:47.557Z,99944.42
2018-08-23T13:35:18.320Z,99938.36
2018-08-23T13:37:48.995Z,99938.80
2018-08-23T13:40:21.530Z,99930.23
2018-08-23T13:42:52.317Z,99927.09
2018-08-23T13:45:22.922Z,99918.83
2018-08-23T13:47:53.592Z,99928.92
2018-08-23T13:50:24.257Z,99924.56
2018-08-23T13:52:54.915Z,99915.94
2018-08-23T13:55:25.591Z,99919.60
2018-08-23T13:57:56.372Z,99918.86
2018-08-23T14:00:32.316Z,99916.20
2018-08-23T14:03:02.985Z,99901.59
2018-08-23T14:05:33.685Z,99902.16
2018-08-23T14:08:04.459Z,99921.48
2018-08-23T14:10:35.339Z,99914.05
2018-08-23T14:13:06.223Z,99917.95
2018-08-23T14:15:42.008Z,99900.20
2018-08-23T14:18:12.775Z,99888.72
2018-08-23T14:20:43.506Z,99894.01
2018-08-23T14:23:14.223Z,99900.95
2018-08-23T14:25:44.875Z,99898.45
2018-08-23T14:28:15.469Z,99897.25
2018-08-23T14:30:46.124Z,99901.11
2018-08-23T14:33:16.795Z,99887.28
2018-08-23T14:35:47.524Z,99884.48
2018-08-23T14:38:19.034Z,99865.92
2018-08-23T14:40:49.697Z,99881.45
2018-08-23T14:43:20.351Z,99867.98
2018-08-23T14:45:51.057Z,99877.94
2018-08-23T14:48:21.785Z,99872.66
2018-08-23T14:50:52.775Z,99883.36
2018-08-23T14:53:27.207Z,99878.52
2018-08-23T14:56:02.972Z,99874.55
2018-08-23T14:58:33.696Z,99867.89
2018-08-23T15:01:04.415Z,99858.78
2018-08-23T15:03:35.104Z,99861.55
2018-08-23T15:06:05.752Z,99862.39
2018-08-23T15:08:36.490Z,99863.50
2018-08-23T15:11:07.190Z,99855.34
2018-08-23T15:13:37.884Z,99848.72
2018-08-23T15:16:08.701Z,99843.27
2018-08-23T15:18:39.337Z,99852.68
2018-08-23T15:21:10.026Z,99850.08
2018-08-23T15:23:40.990Z,99838.20
2018-08-23T15:26:11.837Z,99842.38
2018-08-23T15:28:42.615Z,99845.05
2018-08-23T15:31:13.368Z,99839.36
2018-08-23T15:33:44.101Z,99842.21
2018-08-23T15:36:14.789Z,99841.84
2018-08-23T15:38:45.526Z,99845.25
2018-08-23T15:41:16.356Z,99842.75
2018-08-23T15:43:47.040Z,99844.50
2018-08-23T15:46:17.791Z,99843.87
2018-08-23T15:48:48.560Z,99834.67
2018-08-23T15:51:19.345Z,99837.14
2018-08-23T15:53:50.023Z,99843.57
2018-08-23T15:56:20.985Z,99837.34
2018-08-23T15:58:51.624Z,99847.30
2018-08-23T16:01:22.347Z,99849.29
2018-08-23T16:03:52.950Z,99847.63
2018-08-23T16:06:23.750Z,99849.84
2018-08-23T16:08:54.479Z,99850.03
2018-08-23T16:11:26.054Z,99838.09
2018-08-23T16:13:56.822Z,99842.17
2018-08-23T16:16:32.796Z,99843.92
2018-08-23T16:19:08.806Z,99844.10
2018-08-23T16:21:40.380Z,99847.81
2018-08-23T16:24:12.205Z,99847.99
2018-08-23T16:26:48.116Z,99841.31
2018-08-23T16:29:18.873Z,99843.89
2018-08-23T16:31:49.600Z,99831.13
2018-08-23T16:34:20.558Z,99840.81
2018-08-23T16:36:51.360Z,99833.91
2018-08-23T16:39:22.183Z,99831.00
2018-08-23T16:41:52.955Z,99824.75
2018-08-23T16:44:23.589Z,99824.41
2018-08-23T16:46:54.257Z,99827.52
2018-08-23T16:49:24.945Z,99816.89
2018-08-23T16:51:55.587Z,99815.55
2018-08-23T16:54:26.300Z,99819.29
2018-08-23T16:56:56.954Z,99827.01
2018-08-23T16:59:27.619Z,99823.61
2018-08-23T17:01:58.310Z,99829.30
2018-08-23T17:04:34.146Z,99830.69
2018-08-23T17:07:04.776Z,99829.23
2018-08-23T17:09:35.502Z,99829.19
2018-08-23T17:12:06.349Z,99826.91
2018-08-23T17:14:37.065Z,99827.33
2018-08-23T17:17:12.930Z,99827.02
2018-08-23T17:19:43.592Z,99821.80
2018-08-23T17:22:14.855Z,99819.06
2018-08-23T17:24:45.483Z,99818.41
2018-08-23T17:27:16.242Z,99814.35
2018-08-23T17:29:46.967Z,99815.20
2018-08-23T17:32:17.608Z,99816.44
2018-08-23T17:34:48.307Z,99805.02
2018-08-23T17:37:18.967Z,99806.03
2018-08-23T17:39:49.659Z,99808.77
2018-08-23T17:42:20.413Z,99803.55
2018-08-23T17:44:51.150Z,99804.95
2018-08-23T17:47:21.923Z,99808.84
2018-08-23T17:49:52.565Z,99812.41
2018-08-23T17:52:23.383Z,99827.09
2018-08-23T17:54:54.076Z,99821.05
2018-08-23T17:57:24.716Z,99824.55
2018-08-23T17:59:55.431Z,99827.27
2018-08-23T18:02:26.188Z,99826.76
2018-08-23T18:04:57.266Z,99833.16
2018-08-23T18:07:28.062Z,99827.11
2018-08-23T18:09:58.765Z,99832.15
2018-08-23T18:12:29.561Z,99829.95
2018-08-23T18:15:00.444Z,99825.91
2018-08-23T18:17:31.231Z,99834.45
2018-08-23T18:20:02.087Z,99833.08
2018-08-23T18:22:33.397Z,99836.79
2018-08-23T18:25:04.569Z,99839.61
2018-08-23T18:27:35.605Z,99833.02
2018-08-23T18:30:06.750Z,99852.69
2018-08-23T18:32:37.548Z,99851.64
2018-08-23T18:35:08.333Z,99850.28
2018-08-23T18:37:39.168Z,99849.74
2018-08-23T18:40:09.801Z,99852.11
2018-08-23T18:42:40.574Z,99852.55
2018-08-23T18:45:11.403Z,99856.53
2018-08-23T18:47:42.218Z,99857.34
2018-08-23T18:50:13.180Z,99854.98
2018-08-23T18:52:43.879Z,99860.66
2018-08-23T18:55:14.682Z,99866.20
2018-08-23T18:57:45.443Z,99866.35
2018-08-23T19:00:17.780Z,99863.97
2018-08-23T19:02:48.461Z,99864.25
2018-08-23T19:05:19.168Z,99864.59
2018-08-23T19:07:49.924Z,99862.21
2018-08-23T19:10:20.771Z,99865.84
2018-08-23T19:12:51.491Z,99862.09
2018-08-23T19:15:27.433Z,99864.64
2018-08-23T19:17:58.239Z,99861.38
2018-08-23T19:20:29.041Z,99875.28
2018-08-23T19:22:59.804Z,99872.59
2018-08-23T19:25:30.667Z,99870.06
2018-08-23T19:28:01.366Z,99872.23
2018-08-23T19:30:32.139Z,99864.48
2018-08-23T19:33:03.402Z,99865.95
2018-08-23T19:35:33.739Z,99859.56
2018-08-23T19:38:04.473Z,99865.16
2018-08-23T19:40:35.287Z,99856.97
2018-08-23T19:43:06.343Z,99848.61
2018-08-23T19:45:42.339Z,99845.68
2018-08-23T19:48:13.259Z,99843.89
2018-08-23T19:50:43.981Z,99841.89
2018-08-23T19:53:14.880Z,99843.08
2018-08-23T19:55:45.790Z,99847.33
2018-08-23T19:58:16.448Z,99838.98
2018-08-23T20:00:47.391Z,99841.47
2018-08-23T20:03:18.108Z,99844.03
2018-08-23T20:05:48.758Z,99839.58
2018-08-23T20:08:19.658Z,99838.56
2018-08-23T20:10:50.344Z,99840.95
2018-08-23T20:13:21.051Z,99843.02
2018-08-23T20:15:51.757Z,99835.68
2018-08-23T20:18:22.520Z,99839.80
2018-08-23T20:20:53.199Z,99838.62
2018-08-23T20:23:23.991Z,99838.11
2018-08-23T20:25:54.908Z,99840.05
2018-08-23T20:28:25.813Z,99829.61
2018-08-23T20:30:56.505Z,99834.78
2018-08-23T20:33:27.620Z,99837.89
2018-08-23T20:35:58.546Z,99838.15
2018-08-23T20:38:29.466Z,99835.20
2018-08-23T20:41:00.553Z,99831.19
2018-08-23T20:43:31.167Z,99835.92
2018-08-23T20:46:01.788Z,99844.22
2018-08-23T20:48:32.511Z,99843.77
2018-08-23T20:51:03.197Z,99839.50
2018-08-23T20:53:33.808Z,99828.73
2018-08-23T20:56:04.897Z,99831.25
2018-08-23T20:58:35.594Z,99835.59
2018-08-23T21:01:06.274Z,99832.95
2018-08-23T21:03:36.900Z,99832.22
2018-08-23T21:06:07.599Z,99828.49
2018-08-23T21:08:38.218Z,99830.97
2018-08-23T21:11:08.930Z,99831.33
2018-08-23T21:13:39.642Z,99829.75
2018-08-23T21:16:10.389Z,99833.77
2018-08-23T21:18:41.030Z,99835.89
2018-08-23T21:21:11.708Z,99836.73
2018-08-23T21:23:42.324Z,99837.38
2018-08-23T21:26:12.991Z,99836.40
2018-08-23T21:28:43.726Z,99840.95
2018-08-23T21:31:14.423Z,99834.30
2018-08-23T21:33:45.066Z,99829.57
2018-08-23T21:36:15.696Z,99835.83
2018-08-23T21:38:46.922Z,99830.38
2018-08-23T21:41:17.576Z,99830.22
2018-08-23T21:43:48.217Z,99830.78
2018-08-23T21:46:18.899Z,99827.19
2018-08-23T21:48:49.506Z,99831.20
2018-08-23T21:51:20.141Z,99826.81
2018-08-23T21:53:50.845Z,99833.72
2018-08-23T21:56:21.510Z,99834.70
2018-08-23T21:58:52.237Z,99828.20
2018-08-23T22:01:22.895Z,99827.71
2018-08-23T22:03:53.551Z,99827.19
2018-08-23T22:06:24.154Z,99827.71
2018-08-23T22:08:54.784Z,99825.55
2018-08-23T22:11:25.403Z,99827.14
2018-08-23T22:13:56.069Z,99820.60
2018-08-23T22:16:27.062Z,99823.13
2018-08-23T22:18:57.702Z,99821.78
2018-08-23T22:21:28.352Z,99828.28
2018-08-23T22:23:59.009Z,99815.94
2018-08-23T22:26:29.693Z,99824.09
2018-08-23T22:29:00.342Z,99830.66
2018-08-23T22:31:31.027Z,99824.33
2018-08-23T22:34:01.697Z,99818.76
2018-08-23T22:36:32.365Z,99817.83
2018-08-23T22:39:03.096Z,99812.34
2018-08-23T22:41:33.693Z,99813.15
2018-08-23T22:44:04.393Z,99811.23
2018-08-23T22:46:35.190Z,99811.16
2018-08-23T22:49:05.904Z,99806.00
2018-08-23T22:51:36.541Z,99801.89
2018-08-23T22:54:07.310Z,99805.31
2018-08-23T22:56:37.916Z,99807.58
2018-08-23T22:59:08.534Z,99799.95
2018-08-23T23:01:39.720Z,99800.16
2018-08-23T23:04:15.478Z,99788.59
2018-08-23T23:06:46.210Z,99795.73
2018-08-23T23:09:16.916Z,99792.91
2018-08-23T23:11:50.401Z,99785.80
2018-08-23T23:14:21.181Z,99789.67
2018-08-23T23:16:55.784Z,99774.52
2018-08-23T23:19:26.728Z,99784.16
2018-08-23T23:21:57.355Z,99791.55
2018-08-23T23:24:33.160Z,99798.88
2018-08-23T23:27:03.771Z,99796.84
2018-08-23T23:29:34.400Z,99789.67
2018-08-23T23:32:05.306Z,99799.25
2018-08-23T23:34:35.919Z,99791.38
2018-08-23T23:37:07.712Z,99787.75
2018-08-23T23:39:38.427Z,99780.16
2018-08-23T23:42:40.109Z,99793.42
2018-08-23T23:45:10.738Z,99785.28
2018-08-23T23:47:41.443Z,99792.40
2018-08-23T23:50:12.085Z,99789.56
2018-08-23T23:52:42.687Z,99782.11
2018-08-23T23:55:13.361Z,99795.93
2018-08-23T23:57:43.996Z,99790.09
